sensor_id;sensor_type;location;lat;lon;timestamp;pressure;altitude;pressure_sealevel;temperature
29701;BMP280;57917;51.380;-0.176;2023-03-01T00:03:29;102894.66;;;5.41
29701;BMP280;57917;51.380;-0.176;2023-03-01T00:09:17;102892.69;;;5.43
29701;BMP280;57917;51.380;-0.176;2023-03-01T00:15:13;102897.25;;;5.71
29701;BMP280;57917;51.380;-0.176;2023-03-01T00:21:00;102899.56;;;5.44
29701;BMP280;57917;51.380;-0.176;2023-03-01T00:26:46;102908.56;;;5.35
29701;BMP280;57917;51.380;-0.176;2023-03-01T00:32:33;102898.44;;;5.54
29701;BMP280;57917;51.380;-0.176;2023-03-01T00:38:20;102904.72;;;5.53
29701;BMP280;57917;51.380;-0.176;2023-03-01T00:44:07;102893.81;;;5.70
29701;BMP280;57917;51.380;-0.176;2023-03-01T00:49:54;102893.66;;;5.42
29701;BMP280;57917;51.380;-0.176;2023-03-01T00:55:41;102904.72;;;5.53
29701;BMP280;57917;51.380;-0.176;2023-03-01T01:01:29;102899.28;;;5.54
29701;BMP280;57917;51.380;-0.176;2023-03-01T01:07:17;102896.28;;;5.42
29701;BMP280;57917;51.380;-0.176;2023-03-01T01:13:06;102904.19;;;5.13
29701;BMP280;57917;51.380;-0.176;2023-03-01T01:18:53;102894.19;;;5.23
29701;BMP280;57917;51.380;-0.176;2023-03-01T01:24:40;102893.03;;;5.11
29701;BMP280;57917;51.380;-0.176;2023-03-01T01:30:27;102896.22;;;5.21
29701;BMP280;57917;51.380;-0.176;2023-03-01T01:36:13;102884.97;;;5.27
29701;BMP280;57917;51.380;-0.176;2023-03-01T01:42:01;102883.69;;;5.23
29701;BMP280;57917;51.380;-0.176;2023-03-01T01:47:48;102867.16;;;5.23
29701;BMP280;57917;51.380;-0.176;2023-03-01T01:53:35;102875.03;;;5.23
29701;BMP280;57917;51.380;-0.176;2023-03-01T01:59:23;102865.16;;;5.39
29701;BMP280;57917;51.380;-0.176;2023-03-01T02:05:18;102861.59;;;5.47
29701;BMP280;57917;51.380;-0.176;2023-03-01T02:11:08;102850.97;;;5.55
29701;BMP280;57917;51.380;-0.176;2023-03-01T02:16:55;102836.69;;;5.43
29701;BMP280;57917;51.380;-0.176;2023-03-01T02:22:44;102839.72;;;5.61
29701;BMP280;57917;51.380;-0.176;2023-03-01T02:28:33;102847.22;;;5.28
29701;BMP280;57917;51.380;-0.176;2023-03-01T02:34:23;102858.00;;;5.33
29701;BMP280;57917;51.380;-0.176;2023-03-01T02:40:17;102864.69;;;5.36
29701;BMP280;57917;51.380;-0.176;2023-03-01T02:46:13;102855.00;;;5.07
29701;BMP280;57917;51.380;-0.176;2023-03-01T02:58:09;102848.22;;;4.98
29701;BMP280;57917;51.380;-0.176;2023-03-01T03:03:56;102843.97;;;5.12
29701;BMP280;57917;51.380;-0.176;2023-03-01T03:09:44;102829.16;;;5.04
29701;BMP280;57917;51.380;-0.176;2023-03-01T03:15:32;102834.94;;;5.00
29701;BMP280;57917;51.380;-0.176;2023-03-01T03:21:22;102837.69;;;5.27
29701;BMP280;57917;51.380;-0.176;2023-03-01T03:27:09;102837.56;;;5.14
29701;BMP280;57917;51.380;-0.176;2023-03-01T03:32:57;102818.00;;;5.31
29701;BMP280;57917;51.380;-0.176;2023-03-01T03:38:45;102814.38;;;5.18
29701;BMP280;57917;51.380;-0.176;2023-03-01T03:44:35;102808.81;;;5.13
29701;BMP280;57917;51.380;-0.176;2023-03-01T03:50:22;102802.06;;;5.18
29701;BMP280;57917;51.380;-0.176;2023-03-01T03:56:09;102806.28;;;5.34
29701;BMP280;57917;51.380;-0.176;2023-03-01T04:02:02;102800.66;;;5.22
29701;BMP280;57917;51.380;-0.176;2023-03-01T04:07:49;102806.84;;;5.00
29701;BMP280;57917;51.380;-0.176;2023-03-01T04:13:48;102800.88;;;5.06
29701;BMP280;57917;51.380;-0.176;2023-03-01T04:19:36;102784.03;;;5.15
29701;BMP280;57917;51.380;-0.176;2023-03-01T04:25:23;102769.38;;;5.06
29701;BMP280;57917;51.380;-0.176;2023-03-01T04:31:13;102769.22;;;4.93
29701;BMP280;57917;51.380;-0.176;2023-03-01T04:37:02;102768.28;;;5.15
29701;BMP280;57917;51.380;-0.176;2023-03-01T04:42:49;102771.13;;;4.99
29701;BMP280;57917;51.380;-0.176;2023-03-01T04:48:37;102763.22;;;4.99
29701;BMP280;57917;51.380;-0.176;2023-03-01T04:54:24;102755.38;;;4.99
29701;BMP280;57917;51.380;-0.176;2023-03-01T05:00:13;102748.97;;;4.87
29701;BMP280;57917;51.380;-0.176;2023-03-01T05:06:09;102756.00;;;4.87
29701;BMP280;57917;51.380;-0.176;2023-03-01T05:11:59;102755.72;;;4.82
29701;BMP280;57917;51.380;-0.176;2023-03-01T05:17:46;102760.19;;;4.81
29701;BMP280;57917;51.380;-0.176;2023-03-01T05:23:34;102764.78;;;4.94
29701;BMP280;57917;51.380;-0.176;2023-03-01T05:29:22;102758.44;;;5.03
29701;BMP280;57917;51.380;-0.176;2023-03-01T05:35:15;102754.72;;;4.97
29701;BMP280;57917;51.380;-0.176;2023-03-01T05:41:02;102757.34;;;4.97
29701;BMP280;57917;51.380;-0.176;2023-03-01T05:46:50;102761.25;;;5.01
29701;BMP280;57917;51.380;-0.176;2023-03-01T05:52:37;102763.97;;;4.93
29701;BMP280;57917;51.380;-0.176;2023-03-01T05:58:24;102749.03;;;4.94
29701;BMP280;57917;51.380;-0.176;2023-03-01T06:04:10;102754.34;;;4.71
29701;BMP280;57917;51.380;-0.176;2023-03-01T06:10:00;102766.06;;;4.69
29701;BMP280;57917;51.380;-0.176;2023-03-01T06:15:47;102760.00;;;4.83
29701;BMP280;57917;51.380;-0.176;2023-03-01T06:21:34;102759.16;;;4.82
29701;BMP280;57917;51.380;-0.176;2023-03-01T06:27:21;102762.16;;;4.50
29701;BMP280;57917;51.380;-0.176;2023-03-01T06:33:08;102758.53;;;4.66
29701;BMP280;57917;51.380;-0.176;2023-03-01T06:38:55;102760.97;;;4.67
29701;BMP280;57917;51.380;-0.176;2023-03-01T06:44:41;102768.59;;;4.62
29701;BMP280;57917;51.380;-0.176;2023-03-01T06:50:28;102775.50;;;4.55
29701;BMP280;57917;51.380;-0.176;2023-03-01T06:56:15;102768.13;;;4.59
29701;BMP280;57917;51.380;-0.176;2023-03-01T07:02:02;102769.03;;;4.80
29701;BMP280;57917;51.380;-0.176;2023-03-01T07:07:49;102770.38;;;4.76
29701;BMP280;57917;51.380;-0.176;2023-03-01T07:13:38;102778.53;;;4.96
29701;BMP280;57917;51.380;-0.176;2023-03-01T07:19:25;102785.13;;;5.21
29701;BMP280;57917;51.380;-0.176;2023-03-01T07:25:12;102785.88;;;5.15
29701;BMP280;57917;51.380;-0.176;2023-03-01T07:31:02;102790.28;;;5.14
29701;BMP280;57917;51.380;-0.176;2023-03-01T07:36:49;102789.72;;;5.33
29701;BMP280;57917;51.380;-0.176;2023-03-01T07:42:37;102771.59;;;5.24
29701;BMP280;57917;51.380;-0.176;2023-03-01T07:48:24;102769.09;;;5.16
29701;BMP280;57917;51.380;-0.176;2023-03-01T07:54:14;102766.25;;;5.32
29701;BMP280;57917;51.380;-0.176;2023-03-01T08:00:11;102766.53;;;5.22
29701;BMP280;57917;51.380;-0.176;2023-03-01T08:06:03;102755.81;;;5.38
29701;BMP280;57917;51.380;-0.176;2023-03-01T08:11:50;102758.19;;;5.55
29701;BMP280;57917;51.380;-0.176;2023-03-01T08:17:37;102752.22;;;5.82
29701;BMP280;57917;51.380;-0.176;2023-03-01T08:23:26;102748.78;;;5.81
29701;BMP280;57917;51.380;-0.176;2023-03-01T08:29:13;102751.63;;;5.86
29701;BMP280;57917;51.380;-0.176;2023-03-01T08:35:00;102736.94;;;5.71
29701;BMP280;57917;51.380;-0.176;2023-03-01T08:40:47;102739.38;;;5.93
29701;BMP280;57917;51.380;-0.176;2023-03-01T08:46:40;102739.66;;;5.77
29701;BMP280;57917;51.380;-0.176;2023-03-01T08:52:27;102718.13;;;5.67
29701;BMP280;57917;51.380;-0.176;2023-03-01T08:58:15;102724.63;;;5.99
29701;BMP280;57917;51.380;-0.176;2023-03-01T09:04:02;102715.94;;;6.26
29701;BMP280;57917;51.380;-0.176;2023-03-01T09:09:49;102708.03;;;6.26
29701;BMP280;57917;51.380;-0.176;2023-03-01T09:15:39;102706.94;;;6.14
29701;BMP280;57917;51.380;-0.176;2023-03-01T09:21:26;102704.75;;;6.52
29701;BMP280;57917;51.380;-0.176;2023-03-01T09:27:25;102677.41;;;6.53
29701;BMP280;57917;51.380;-0.176;2023-03-01T09:33:12;102672.94;;;6.46
29701;BMP280;57917;51.380;-0.176;2023-03-01T09:39:02;102669.06;;;6.36
29701;BMP280;57917;51.380;-0.176;2023-03-01T09:44:55;102666.13;;;6.65
29701;BMP280;57917;51.380;-0.176;2023-03-01T09:50:44;102667.28;;;7.03
29701;BMP280;57917;51.380;-0.176;2023-03-01T09:57:03;102658.41;;;7.30
29701;BMP280;57917;51.380;-0.176;2023-03-01T10:03:08;102652.25;;;6.91
29701;BMP280;57917;51.380;-0.176;2023-03-01T10:09:05;102640.78;;;7.31
29701;BMP280;57917;51.380;-0.176;2023-03-01T10:21:18;102622.53;;;7.55
29701;BMP280;57917;51.380;-0.176;2023-03-01T10:33:02;102602.25;;;7.23
29701;BMP280;57917;51.380;-0.176;2023-03-01T10:38:57;102609.31;;;7.03
29701;BMP280;57917;51.380;-0.176;2023-03-01T10:44:48;102613.19;;;7.01
29701;BMP280;57917;51.380;-0.176;2023-03-01T10:50:35;102625.53;;;6.94
29701;BMP280;57917;51.380;-0.176;2023-03-01T10:56:27;102629.56;;;7.03
29701;BMP280;57917;51.380;-0.176;2023-03-01T11:02:22;102614.19;;;6.93
29701;BMP280;57917;51.380;-0.176;2023-03-01T11:08:12;102594.72;;;6.94
29701;BMP280;57917;51.380;-0.176;2023-03-01T11:14:20;102590.72;;;7.24
29701;BMP280;57917;51.380;-0.176;2023-03-01T11:20:31;102587.47;;;7.16
29701;BMP280;57917;51.380;-0.176;2023-03-01T11:26:19;102571.06;;;7.27
29701;BMP280;57917;51.380;-0.176;2023-03-01T11:32:08;102559.50;;;7.34
29701;BMP280;57917;51.380;-0.176;2023-03-01T11:44:14;102527.06;;;7.27
29701;BMP280;57917;51.380;-0.176;2023-03-01T11:50:49;102538.63;;;7.39
29701;BMP280;57917;51.380;-0.176;2023-03-01T11:56:32;102531.56;;;7.20
29701;BMP280;57917;51.380;-0.176;2023-03-01T12:08:34;102530.34;;;7.16
29701;BMP280;57917;51.380;-0.176;2023-03-01T12:39:11;102479.25;;;7.30
29701;BMP280;57917;51.380;-0.176;2023-03-01T12:51:00;102463.31;;;7.70
29701;BMP280;57917;51.380;-0.176;2023-03-01T12:56:47;102451.06;;;7.37
29701;BMP280;57917;51.380;-0.176;2023-03-01T13:02:58;102444.00;;;7.31
29701;BMP280;57917;51.380;-0.176;2023-03-01T13:09:01;102431.78;;;7.43
29701;BMP280;57917;51.380;-0.176;2023-03-01T13:14:53;102432.16;;;7.53
29701;BMP280;57917;51.380;-0.176;2023-03-01T13:26:30;102420.13;;;7.71
29701;BMP280;57917;51.380;-0.176;2023-03-01T13:32:31;102421.44;;;7.42
29701;BMP280;57917;51.380;-0.176;2023-03-01T13:44:34;102403.88;;;7.29
29701;BMP280;57917;51.380;-0.176;2023-03-01T13:50:25;102388.22;;;7.47
29701;BMP280;57917;51.380;-0.176;2023-03-01T14:02:10;102367.28;;;7.84
29701;BMP280;57917;51.380;-0.176;2023-03-01T14:07:58;102373.16;;;7.86
29701;BMP280;57917;51.380;-0.176;2023-03-01T14:13:58;102351.06;;;7.55
29701;BMP280;57917;51.380;-0.176;2023-03-01T14:19:55;102352.81;;;7.93
29701;BMP280;57917;51.380;-0.176;2023-03-01T14:25:51;102345.53;;;7.64
29701;BMP280;57917;51.380;-0.176;2023-03-01T14:31:38;102340.84;;;7.66
29701;BMP280;57917;51.380;-0.176;2023-03-01T14:37:39;102326.41;;;7.75
29701;BMP280;57917;51.380;-0.176;2023-03-01T14:43:27;102337.56;;;7.77
29701;BMP280;57917;51.380;-0.176;2023-03-01T14:49:16;102307.84;;;7.56
29701;BMP280;57917;51.380;-0.176;2023-03-01T14:55:17;102316.50;;;7.70
29701;BMP280;57917;51.380;-0.176;2023-03-01T15:01:05;102314.41;;;7.79
29701;BMP280;57917;51.380;-0.176;2023-03-01T15:06:55;102308.00;;;7.93
29701;BMP280;57917;51.380;-0.176;2023-03-01T15:12:52;102283.19;;;7.76
29701;BMP280;57917;51.380;-0.176;2023-03-01T15:18:54;102283.50;;;7.86
29701;BMP280;57917;51.380;-0.176;2023-03-01T15:24:46;102266.50;;;7.82
29701;BMP280;57917;51.380;-0.176;2023-03-01T15:30:35;102255.75;;;7.83
29701;BMP280;57917;51.380;-0.176;2023-03-01T15:36:43;102237.88;;;7.92
29701;BMP280;57917;51.380;-0.176;2023-03-01T15:48:18;102235.72;;;8.00
29701;BMP280;57917;51.380;-0.176;2023-03-01T15:54:14;102224.81;;;7.97
29701;BMP280;57917;51.380;-0.176;2023-03-01T16:00:05;102203.94;;;7.95
29701;BMP280;57917;51.380;-0.176;2023-03-01T16:05:59;102214.91;;;7.92
29701;BMP280;57917;51.380;-0.176;2023-03-01T16:11:47;102221.22;;;7.91
29701;BMP280;57917;51.380;-0.176;2023-03-01T16:17:34;102223.28;;;8.25
29701;BMP280;57917;51.380;-0.176;2023-03-01T16:23:21;102209.88;;;8.09
29701;BMP280;57917;51.380;-0.176;2023-03-01T16:29:11;102207.03;;;8.10
29701;BMP280;57917;51.380;-0.176;2023-03-01T16:34:58;102205.94;;;8.00
29701;BMP280;57917;51.380;-0.176;2023-03-01T16:40:50;102204.13;;;8.18
29701;BMP280;57917;51.380;-0.176;2023-03-01T16:46:37;102193.44;;;7.89
29701;BMP280;57917;51.380;-0.176;2023-03-01T16:52:25;102197.84;;;7.95
29701;BMP280;57917;51.380;-0.176;2023-03-01T16:58:14;102195.56;;;7.80
29701;BMP280;57917;51.380;-0.176;2023-03-01T17:04:03;102198.72;;;7.89
29701;BMP280;57917;51.380;-0.176;2023-03-01T17:09:50;102186.84;;;7.80
29701;BMP280;57917;51.380;-0.176;2023-03-01T17:15:43;102184.34;;;7.67
29701;BMP280;57917;51.380;-0.176;2023-03-01T17:21:30;102194.13;;;7.60
29701;BMP280;57917;51.380;-0.176;2023-03-01T17:27:17;102200.28;;;7.72
29701;BMP280;57917;51.380;-0.176;2023-03-01T17:33:04;102187.81;;;7.61
29701;BMP280;57917;51.380;-0.176;2023-03-01T17:38:51;102201.25;;;7.52
29701;BMP280;57917;51.380;-0.176;2023-03-01T17:44:38;102199.03;;;7.49
29701;BMP280;57917;51.380;-0.176;2023-03-01T17:50:28;102193.31;;;7.59
29701;BMP280;57917;51.380;-0.176;2023-03-01T17:56:15;102197.44;;;7.73
29701;BMP280;57917;51.380;-0.176;2023-03-01T18:02:02;102207.53;;;7.51
29701;BMP280;57917;51.380;-0.176;2023-03-01T18:07:51;102217.66;;;7.54
29701;BMP280;57917;51.380;-0.176;2023-03-01T18:13:38;102218.94;;;7.45
29701;BMP280;57917;51.380;-0.176;2023-03-01T18:19:27;102222.91;;;7.54
29701;BMP280;57917;51.380;-0.176;2023-03-01T18:25:15;102215.78;;;7.30
29701;BMP280;57917;51.380;-0.176;2023-03-01T18:31:05;102218.91;;;7.21
29701;BMP280;57917;51.380;-0.176;2023-03-01T18:36:57;102225.25;;;7.07
29701;BMP280;57917;51.380;-0.176;2023-03-01T18:42:55;102227.88;;;7.44
29701;BMP280;57917;51.380;-0.176;2023-03-01T18:48:44;102214.38;;;7.28
29701;BMP280;57917;51.380;-0.176;2023-03-01T18:54:33;102211.47;;;7.42
29701;BMP280;57917;51.380;-0.176;2023-03-01T19:00:22;102223.69;;;7.30
29701;BMP280;57917;51.380;-0.176;2023-03-01T19:06:09;102211.16;;;7.26
29701;BMP280;57917;51.380;-0.176;2023-03-01T19:11:55;102212.50;;;7.10
29701;BMP280;57917;51.380;-0.176;2023-03-01T19:17:44;102209.81;;;7.17
29701;BMP280;57917;51.380;-0.176;2023-03-01T19:23:32;102199.38;;;6.97
29701;BMP280;57917;51.380;-0.176;2023-03-01T19:29:22;102212.59;;;6.84
29701;BMP280;57917;51.380;-0.176;2023-03-01T19:35:09;102212.81;;;6.89
29701;BMP280;57917;51.380;-0.176;2023-03-01T19:40:56;102226.97;;;6.88
29701;BMP280;57917;51.380;-0.176;2023-03-01T19:46:43;102224.41;;;6.75
29701;BMP280;57917;51.380;-0.176;2023-03-01T19:52:30;102217.78;;;6.40
29701;BMP280;57917;51.380;-0.176;2023-03-01T19:58:17;102225.13;;;6.25
29701;BMP280;57917;51.380;-0.176;2023-03-01T20:04:04;102226.72;;;6.26
29701;BMP280;57917;51.380;-0.176;2023-03-01T20:09:52;102235.25;;;6.21
29701;BMP280;57917;51.380;-0.176;2023-03-01T20:15:42;102239.28;;;6.37
29701;BMP280;57917;51.380;-0.176;2023-03-01T20:21:29;102238.88;;;6.14
29701;BMP280;57917;51.380;-0.176;2023-03-01T20:27:16;102238.28;;;6.12
29701;BMP280;57917;51.380;-0.176;2023-03-01T20:33:06;102239.66;;;6.47
29701;BMP280;57917;51.380;-0.176;2023-03-01T20:38:56;102240.31;;;6.16
29701;BMP280;57917;51.380;-0.176;2023-03-01T20:44:43;102242.94;;;5.97
29701;BMP280;57917;51.380;-0.176;2023-03-01T20:50:31;102245.75;;;5.89
29701;BMP280;57917;51.380;-0.176;2023-03-01T20:56:20;102251.41;;;5.73
29701;BMP280;57917;51.380;-0.176;2023-03-01T21:02:23;102254.00;;;5.60
29701;BMP280;57917;51.380;-0.176;2023-03-01T21:08:10;102250.97;;;5.69
29701;BMP280;57917;51.380;-0.176;2023-03-01T21:13:57;102249.41;;;5.88
29701;BMP280;57917;51.380;-0.176;2023-03-01T21:19:44;102259.28;;;5.86
29701;BMP280;57917;51.380;-0.176;2023-03-01T21:25:31;102249.13;;;5.57
29701;BMP280;57917;51.380;-0.176;2023-03-01T21:31:23;102243.88;;;5.43
29701;BMP280;57917;51.380;-0.176;2023-03-01T21:37:10;102254.38;;;5.43
29701;BMP280;57917;51.380;-0.176;2023-03-01T21:42:58;102257.59;;;5.32
29701;BMP280;57917;51.380;-0.176;2023-03-01T21:48:46;102251.16;;;5.41
29701;BMP280;57917;51.380;-0.176;2023-03-01T21:54:33;102251.69;;;5.24
29701;BMP280;57917;51.380;-0.176;2023-03-01T22:00:21;102251.63;;;5.11
29701;BMP280;57917;51.380;-0.176;2023-03-01T22:06:20;102270.00;;;5.11
29701;BMP280;57917;51.380;-0.176;2023-03-01T22:12:20;102264.13;;;5.09
29701;BMP280;57917;51.380;-0.176;2023-03-01T22:18:07;102254.09;;;5.12
29701;BMP280;57917;51.380;-0.176;2023-03-01T22:23:54;102260.59;;;4.82
29701;BMP280;57917;51.380;-0.176;2023-03-01T22:29:41;102250.31;;;4.81
29701;BMP280;57917;51.380;-0.176;2023-03-01T22:35:28;102255.16;;;4.90
29701;BMP280;57917;51.380;-0.176;2023-03-01T22:41:15;102243.38;;;4.67
29701;BMP280;57917;51.380;-0.176;2023-03-01T22:47:02;102241.63;;;4.53
29701;BMP280;57917;51.380;-0.176;2023-03-01T22:52:49;102232.88;;;4.39
29701;BMP280;57917;51.380;-0.176;2023-03-01T22:58:36;102229.63;;;4.37
29701;BMP280;57917;51.380;-0.176;2023-03-01T23:04:22;102223.84;;;4.41
29701;BMP280;57917;51.380;-0.176;2023-03-01T23:10:09;102221.88;;;4.22
29701;BMP280;57917;51.380;-0.176;2023-03-01T23:15:57;102223.44;;;4.17
29701;BMP280;57917;51.380;-0.176;2023-03-01T23:21:45;102224.50;;;4.22
29701;BMP280;57917;51.380;-0.176;2023-03-01T23:27:36;102210.97;;;4.19
29701;BMP280;57917;51.380;-0.176;2023-03-01T23:33:24;102208.50;;;4.17
29701;BMP280;57917;51.380;-0.176;2023-03-01T23:39:12;102203.44;;;4.09
29701;BMP280;57917;51.380;-0.176;2023-03-01T23:44:59;102203.19;;;4.04
29701;BMP280;57917;51.380;-0.176;2023-03-01T23:50:48;102208.53;;;3.96
29701;BMP280;57917;51.380;-0.176;2023-03-01T23:56:37;102202.00;;;4.07
